createdAt,value
2022-12-25T00:02:16.105Z,85.61
2022-12-25T00:04:44.011Z,85.41
2022-12-25T00:07:11.880Z,85.75
2022-12-25T00:09:39.634Z,85.95
2022-12-25T00:12:07.729Z,86.07
2022-12-25T00:14:35.772Z,85.67
2022-12-25T00:17:03.731Z,85.67
2022-12-25T00:19:31.497Z,85.79
2022-12-25T00:21:59.160Z,85.68
2022-12-25T00:24:26.876Z,85.55
2022-12-25T00:26:54.913Z,85.27
2022-12-25T00:29:22.811Z,85.89
2022-12-25T00:31:50.557Z,85.94
2022-12-25T00:34:18.962Z,85.76
2022-12-25T00:36:46.587Z,85.21
2022-12-25T00:39:14.301Z,85.44
2022-12-25T00:41:59.555Z,85.29
2022-12-25T00:44:27.280Z,84.98
2022-12-25T00:46:55.017Z,85.03
2022-12-25T00:49:23.069Z,85.09
2022-12-25T00:51:50.715Z,84.77
2022-12-25T00:54:18.361Z,84.67
2022-12-25T00:56:46.261Z,85.06
2022-12-25T00:59:13.891Z,84.62
2022-12-25T01:01:42.179Z,84.36
2022-12-25T01:04:10.175Z,84.23
2022-12-25T01:06:37.823Z,84.41
2022-12-25T01:09:22.888Z,84.01
2022-12-25T01:11:51.198Z,83.94
2022-12-25T01:14:18.808Z,84.22
2022-12-25T01:16:46.562Z,84.28
2022-12-25T01:19:14.312Z,84.54
2022-12-25T01:21:41.958Z,84.13
2022-12-25T01:24:09.892Z,84.40
2022-12-25T01:26:37.581Z,83.90
2022-12-25T01:29:05.196Z,84.26
2022-12-25T01:31:32.952Z,84.35
2022-12-25T01:34:00.652Z,83.91
2022-12-25T01:36:29.701Z,83.83
2022-12-25T01:38:57.371Z,84.22
2022-12-25T01:41:24.984Z,83.42
2022-12-25T01:43:52.613Z,83.69
2022-12-25T01:46:20.395Z,83.95
2022-12-25T01:48:48.067Z,84.08
2022-12-25T01:51:15.757Z,83.48
2022-12-25T01:53:43.427Z,83.63
2022-12-25T01:56:11.022Z,83.79
2022-12-25T01:58:39.019Z,83.33
2022-12-25T02:01:07.355Z,83.48
2022-12-25T02:03:35.062Z,83.39
2022-12-25T02:06:02.693Z,83.38
2022-12-25T02:08:30.377Z,83.59
2022-12-25T02:10:57.970Z,83.58
2022-12-25T02:13:26.229Z,83.59
2022-12-25T02:15:53.909Z,83.64
2022-12-25T02:18:21.513Z,83.53
2022-12-25T02:20:49.117Z,84.15
2022-12-25T02:23:16.842Z,83.70
2022-12-25T02:25:44.977Z,83.40
2022-12-25T02:28:12.560Z,83.62
2022-12-25T02:30:40.224Z,83.53
2022-12-25T02:33:21.672Z,83.35
2022-12-25T02:35:49.722Z,83.38
2022-12-25T02:38:17.373Z,82.95
2022-12-25T02:40:43.981Z,83.45
2022-12-25T02:43:29.379Z,83.26
2022-12-25T02:46:14.588Z,83.57
2022-12-25T02:49:00.017Z,83.41
2022-12-25T02:51:45.001Z,83.19
2022-12-25T02:54:30.143Z,83.17
2022-12-25T02:57:15.163Z,83.34
2022-12-25T03:00:00.215Z,83.45
2022-12-25T03:02:45.527Z,83.80
2022-12-25T03:05:26.937Z,83.33
2022-12-25T03:07:55.609Z,83.17
2022-12-25T03:10:40.791Z,83.16
2022-12-25T03:13:08.450Z,83.33
2022-12-25T03:16:08.122Z,83.03
2022-12-25T03:18:36.494Z,83.36
2022-12-25T03:21:21.354Z,83.05
2022-12-25T03:24:06.549Z,83.43
2022-12-25T03:26:51.917Z,83.66
2022-12-25T03:29:34.113Z,83.13
2022-12-25T03:32:01.756Z,83.47
2022-12-25T03:34:46.752Z,83.49
2022-12-25T03:37:28.157Z,83.10
2022-12-25T03:40:19.006Z,83.60
2022-12-25T03:43:04.338Z,83.36
2022-12-25T03:45:49.746Z,83.60
2022-12-25T03:51:43.850Z,83.39
2022-12-25T03:54:28.952Z,83.56
2022-12-25T03:57:13.941Z,83.06
2022-12-25T03:59:58.712Z,83.67
2022-12-25T04:02:43.722Z,83.49
2022-12-25T04:05:28.902Z,83.19
2022-12-25T04:08:14.277Z,83.39
2022-12-25T04:10:59.156Z,83.25
2022-12-25T04:13:44.111Z,83.45
2022-12-25T04:16:37.535Z,83.18
2022-12-25T04:19:22.509Z,82.95
2022-12-25T04:22:07.409Z,83.28
2022-12-25T04:24:52.887Z,83.72
2022-12-25T04:27:37.910Z,83.45
2022-12-25T04:30:23.466Z,83.55
2022-12-25T04:33:08.400Z,83.10
2022-12-25T04:35:53.280Z,83.97
2022-12-25T04:38:22.427Z,83.20
2022-12-25T04:40:50.034Z,83.45
2022-12-25T04:43:17.632Z,83.71
2022-12-25T04:45:45.196Z,83.11
2022-12-25T04:48:13.153Z,83.85
2022-12-25T04:50:40.771Z,83.44
2022-12-25T04:53:08.374Z,83.82
2022-12-25T04:55:35.952Z,83.78
2022-12-25T04:58:03.553Z,83.64
2022-12-25T05:00:31.515Z,83.95
2022-12-25T05:02:59.478Z,83.74
2022-12-25T05:05:27.213Z,83.57
2022-12-25T05:07:54.888Z,83.38
2022-12-25T05:10:22.462Z,84.04
2022-12-25T05:12:50.779Z,83.62
2022-12-25T05:15:18.565Z,83.58
2022-12-25T05:17:46.127Z,84.10
2022-12-25T05:20:13.791Z,84.43
2022-12-25T05:22:41.391Z,84.27
2022-12-25T05:25:09.344Z,84.39
2022-12-25T05:27:37.188Z,84.80
2022-12-25T05:30:04.760Z,84.40
2022-12-25T05:32:32.402Z,84.63
2022-12-25T05:35:00.878Z,84.71
2022-12-25T05:37:28.840Z,84.47
2022-12-25T05:39:56.605Z,84.60
2022-12-25T05:42:24.203Z,84.71
2022-12-25T05:44:51.798Z,85.07
2022-12-25T05:47:19.365Z,84.95
2022-12-25T05:49:47.387Z,84.93
2022-12-25T05:52:15.186Z,85.04
2022-12-25T05:54:42.784Z,85.19
2022-12-25T05:57:10.864Z,85.15
2022-12-25T05:59:38.470Z,85.41
2022-12-25T06:02:06.505Z,85.69
2022-12-25T06:04:34.448Z,85.41
2022-12-25T06:07:02.016Z,85.38
2022-12-25T06:09:29.597Z,85.40
2022-12-25T06:11:57.263Z,85.59
2022-12-25T06:14:25.204Z,85.65
2022-12-25T06:16:53.198Z,85.49
2022-12-25T06:19:20.915Z,85.52
2022-12-25T06:21:48.582Z,85.42
2022-12-25T06:24:21.003Z,85.43
2022-12-25T06:26:49.475Z,85.17
2022-12-25T06:29:17.272Z,85.88
2022-12-25T06:31:44.984Z,85.73
2022-12-25T06:34:16.356Z,85.84
2022-12-25T06:36:43.913Z,85.47
2022-12-25T06:39:11.910Z,85.67
2022-12-25T06:41:40.570Z,85.78
2022-12-25T06:44:08.132Z,85.94
2022-12-25T06:46:35.716Z,86.11
2022-12-25T06:49:03.361Z,85.57
2022-12-25T06:51:31.339Z,86.06
2022-12-25T06:53:59.199Z,86.26
2022-12-25T06:56:27.178Z,86.02
2022-12-25T06:58:54.755Z,86.12
2022-12-25T07:01:22.501Z,86.19
2022-12-25T07:03:52.457Z,85.92
2022-12-25T07:06:20.079Z,86.09
2022-12-25T07:08:47.703Z,86.08
2022-12-25T07:11:15.289Z,86.12
2022-12-25T07:13:42.863Z,86.56
2022-12-25T07:16:10.890Z,85.76
2022-12-25T07:18:38.762Z,86.54
2022-12-25T07:21:06.343Z,86.41
2022-12-25T07:23:33.955Z,86.25
2022-12-25T07:26:02.076Z,86.48
2022-12-25T07:28:29.893Z,86.43
2022-12-25T07:30:57.655Z,86.38
2022-12-25T07:33:25.327Z,86.45
2022-12-25T07:35:52.906Z,86.39
2022-12-25T07:38:20.499Z,86.27
2022-12-25T07:40:48.500Z,86.30
2022-12-25T07:43:16.252Z,86.12
2022-12-25T07:45:44.035Z,86.33
2022-12-25T07:48:16.400Z,85.89
2022-12-25T07:50:44.501Z,86.21
2022-12-25T07:53:12.497Z,85.97
2022-12-25T07:55:40.398Z,85.60
2022-12-25T07:58:07.970Z,85.67
2022-12-25T08:00:35.654Z,85.25
2022-12-25T08:03:03.445Z,85.38
2022-12-25T08:05:31.531Z,85.36
2022-12-25T08:08:00.679Z,85.53
2022-12-25T08:10:28.314Z,85.28
2022-12-25T08:12:55.945Z,85.10
2022-12-25T08:15:23.575Z,85.03
2022-12-25T08:17:51.548Z,85.48
2022-12-25T08:20:19.177Z,84.93
2022-12-25T08:22:46.767Z,84.68
2022-12-25T08:25:16.035Z,85.06
2022-12-25T08:27:43.698Z,84.42
2022-12-25T08:30:12.205Z,84.76
2022-12-25T08:32:40.187Z,84.32
2022-12-25T08:35:07.778Z,84.72
2022-12-25T08:37:35.393Z,84.48
2022-12-25T08:40:03.071Z,84.45
2022-12-25T08:42:31.028Z,84.44
2022-12-25T08:44:59.038Z,83.74
2022-12-25T08:47:26.702Z,84.11
2022-12-25T08:49:54.353Z,84.34
2022-12-25T08:52:22.160Z,83.98
2022-12-25T08:54:50.201Z,84.17
2022-12-25T08:57:18.087Z,83.36
2022-12-25T08:59:45.656Z,83.87
2022-12-25T09:02:13.439Z,83.79
2022-12-25T09:04:41.247Z,83.93
2022-12-25T09:07:09.257Z,83.39
2022-12-25T09:09:37.437Z,83.58
2022-12-25T09:12:05.421Z,83.69
2022-12-25T09:14:33.017Z,83.56
2022-12-25T09:17:00.736Z,83.99
2022-12-25T09:19:28.864Z,83.06
2022-12-25T09:21:56.807Z,83.65
2022-12-25T09:24:24.541Z,82.97
2022-12-25T09:26:52.208Z,83.37
2022-12-25T09:29:19.906Z,83.56
2022-12-25T09:31:48.174Z,83.65
2022-12-25T09:34:19.184Z,83.13
2022-12-25T09:36:46.978Z,83.05
2022-12-25T09:39:14.709Z,83.33
2022-12-25T09:41:42.409Z,83.02
2022-12-25T09:44:10.076Z,83.12
2022-12-25T09:46:38.084Z,83.46
2022-12-25T09:49:05.751Z,83.55
2022-12-25T09:51:33.417Z,83.71
2022-12-25T09:54:01.107Z,83.37
2022-12-25T09:56:29.385Z,83.91
2022-12-25T09:58:57.995Z,83.66
2022-12-25T10:01:25.835Z,84.00
2022-12-25T10:03:53.689Z,83.98
2022-12-25T10:06:21.506Z,83.98
2022-12-25T10:08:49.630Z,83.60
2022-12-25T10:11:17.762Z,84.28
2022-12-25T10:13:45.530Z,84.31
2022-12-25T10:16:13.487Z,84.13
2022-12-25T10:18:41.121Z,84.36
2022-12-25T10:21:13.058Z,84.05
2022-12-25T10:23:41.416Z,84.84
2022-12-25T10:26:09.086Z,84.45
2022-12-25T10:28:36.797Z,84.32
2022-12-25T10:31:04.678Z,84.74
2022-12-25T10:33:32.857Z,84.65
2022-12-25T10:36:00.852Z,84.63
2022-12-25T10:38:28.634Z,84.44
2022-12-25T10:40:56.766Z,84.76
2022-12-25T10:43:24.550Z,85.11
2022-12-25T10:45:52.814Z,85.06
2022-12-25T10:48:20.935Z,85.06
2022-12-25T10:50:48.756Z,85.21
2022-12-25T10:53:16.496Z,84.83
2022-12-25T10:55:44.620Z,84.94
2022-12-25T10:58:12.980Z,84.96
2022-12-25T11:00:41.053Z,84.87
2022-12-25T11:03:09.317Z,84.88
2022-12-25T11:05:37.262Z,84.55
2022-12-25T11:08:05.013Z,84.79
2022-12-25T11:10:33.391Z,84.66
2022-12-25T11:13:01.211Z,84.98
2022-12-25T11:15:28.985Z,84.86
2022-12-25T11:17:56.740Z,84.75
2022-12-25T11:20:24.489Z,85.02
2022-12-25T11:22:52.628Z,85.26
2022-12-25T11:25:21.846Z,85.72
2022-12-25T11:27:53.443Z,85.38
2022-12-25T11:30:21.594Z,85.40
2022-12-25T11:32:49.387Z,85.42
2022-12-25T11:35:17.785Z,85.56
2022-12-25T11:37:46.042Z,85.05
2022-12-25T11:40:13.848Z,85.44
2022-12-25T11:42:41.596Z,84.89
2022-12-25T11:45:09.491Z,85.14
2022-12-25T11:47:37.697Z,85.43
2022-12-25T11:50:05.630Z,84.82
2022-12-25T11:52:33.547Z,85.17
2022-12-25T11:55:01.344Z,84.75
2022-12-25T11:57:29.210Z,84.58
2022-12-25T11:59:57.122Z,84.93
2022-12-25T12:02:25.224Z,85.04
2022-12-25T12:04:53.062Z,84.95
2022-12-25T12:07:21.351Z,84.73
2022-12-25T12:09:49.125Z,84.88
2022-12-25T12:12:17.295Z,84.47
2022-12-25T12:14:45.432Z,84.95
2022-12-25T12:17:13.236Z,84.70
2022-12-25T12:19:41.111Z,84.75
2022-12-25T12:22:09.007Z,84.90
2022-12-25T12:24:37.433Z,84.82
2022-12-25T12:27:05.440Z,84.58
2022-12-25T12:29:33.811Z,84.72
2022-12-25T12:32:01.796Z,85.11
2022-12-25T12:34:29.701Z,84.99
2022-12-25T12:36:57.972Z,84.38
2022-12-25T12:39:25.945Z,84.75
2022-12-25T12:41:53.648Z,84.77
2022-12-25T12:44:22.791Z,84.69
2022-12-25T12:46:50.597Z,85.03
2022-12-25T12:49:18.824Z,84.70
2022-12-25T12:51:46.896Z,84.46
2022-12-25T12:54:14.601Z,84.52
2022-12-25T12:56:42.463Z,85.18
2022-12-25T12:59:10.448Z,85.26
2022-12-25T13:01:38.367Z,84.77
2022-12-25T13:04:06.355Z,85.04
2022-12-25T13:06:34.264Z,85.43
2022-12-25T13:09:02.183Z,85.23
2022-12-25T13:11:29.923Z,84.83
2022-12-25T13:13:58.165Z,85.13
2022-12-25T13:16:26.042Z,85.40
2022-12-25T13:18:53.841Z,84.99
2022-12-25T13:21:21.774Z,85.23
2022-12-25T13:23:49.623Z,85.35
2022-12-25T13:26:17.554Z,84.96
2022-12-25T13:28:45.760Z,84.87
2022-12-25T13:31:13.691Z,84.85
2022-12-25T13:33:42.063Z,85.16
2022-12-25T13:36:09.968Z,84.74
2022-12-25T13:38:37.781Z,84.65
2022-12-25T13:41:22.917Z,84.73
2022-12-25T13:43:50.957Z,85.04
2022-12-25T13:46:18.849Z,85.41
2022-12-25T13:48:46.780Z,84.67
2022-12-25T13:51:14.717Z,85.42
2022-12-25T13:53:42.974Z,84.75
2022-12-25T13:56:11.173Z,85.13
2022-12-25T13:58:39.725Z,85.12
2022-12-25T14:01:08.164Z,84.61
2022-12-25T14:03:36.140Z,84.89
2022-12-25T14:06:04.206Z,84.69
2022-12-25T14:08:32.346Z,84.52
2022-12-25T14:11:00.232Z,84.60
2022-12-25T14:13:28.839Z,84.64
2022-12-25T14:15:57.168Z,84.46
2022-12-25T14:18:25.060Z,84.49
2022-12-25T14:20:52.901Z,84.84
2022-12-25T14:23:20.819Z,84.44
2022-12-25T14:25:49.079Z,84.77
2022-12-25T14:28:16.883Z,84.70
2022-12-25T14:30:44.911Z,84.76
2022-12-25T14:33:12.956Z,83.95
2022-12-25T14:35:40.752Z,83.99
2022-12-25T14:38:09.293Z,84.46
2022-12-25T14:40:37.397Z,83.97
2022-12-25T14:43:05.199Z,84.52
2022-12-25T14:45:33.163Z,84.62
2022-12-25T14:48:01.184Z,84.86
2022-12-25T14:50:29.505Z,85.28
2022-12-25T14:52:57.580Z,85.33
2022-12-25T14:55:25.562Z,85.27
2022-12-25T14:57:53.833Z,85.17
2022-12-25T15:00:21.873Z,85.80
2022-12-25T15:02:50.441Z,85.73
2022-12-25T15:05:18.474Z,85.23
2022-12-25T15:07:46.385Z,86.00
2022-12-25T15:10:58.032Z,85.76
2022-12-25T15:13:02.453Z,86.33
2022-12-25T15:15:30.327Z,85.82
2022-12-25T15:17:58.219Z,86.14
2022-12-25T15:20:26.311Z,86.38
2022-12-25T15:23:18.609Z,85.58
2022-12-25T15:25:42.491Z,86.20
2022-12-25T15:28:13.044Z,86.29
2022-12-25T15:30:41.271Z,86.20
2022-12-25T15:33:09.082Z,86.19
2022-12-25T15:35:39.285Z,86.47
2022-12-25T15:38:07.454Z,86.17
2022-12-25T15:40:35.596Z,86.19
2022-12-25T15:43:11.191Z,85.94
2022-12-25T15:45:48.854Z,85.73
2022-12-25T15:48:16.851Z,86.02
2022-12-25T15:50:44.758Z,85.58
2022-12-25T15:53:13.031Z,85.74
2022-12-25T15:55:40.882Z,85.28
2022-12-25T15:58:08.580Z,85.22
2022-12-25T16:00:37.156Z,85.07
2022-12-25T16:03:05.172Z,84.90
2022-12-25T16:05:33.282Z,85.70
2022-12-25T16:08:01.018Z,85.91
2022-12-25T16:10:33.437Z,85.42
2022-12-25T16:13:05.167Z,86.09
2022-12-25T16:15:33.225Z,85.94
2022-12-25T16:18:01.420Z,85.97
2022-12-25T16:20:29.270Z,86.13
2022-12-25T16:22:57.248Z,85.99
2022-12-25T16:25:25.733Z,85.87
2022-12-25T16:27:53.702Z,85.93
2022-12-25T16:30:21.951Z,85.81
2022-12-25T16:32:49.895Z,85.05
2022-12-25T16:35:18.086Z,85.23
2022-12-25T16:37:46.456Z,84.88
2022-12-25T16:40:14.278Z,85.02
2022-12-25T16:42:43.894Z,84.92
2022-12-25T16:45:11.901Z,85.01
2022-12-25T16:47:39.786Z,85.33
2022-12-25T16:50:08.113Z,85.33
2022-12-25T16:52:35.971Z,85.40
2022-12-25T16:55:04.034Z,85.40
2022-12-25T16:57:31.863Z,85.04
2022-12-25T17:00:00.410Z,84.50
2022-12-25T17:02:28.639Z,84.37
2022-12-25T17:04:57.035Z,84.58
2022-12-25T17:07:25.340Z,84.69
2022-12-25T17:09:53.230Z,84.10
2022-12-25T17:12:21.206Z,84.24
2022-12-25T17:14:49.587Z,83.96
2022-12-25T17:17:17.412Z,84.06
2022-12-25T17:19:45.248Z,83.98
2022-12-25T17:22:13.239Z,83.68
2022-12-25T17:24:41.749Z,83.58
2022-12-25T17:27:10.367Z,83.85
2022-12-25T17:29:39.428Z,83.56
2022-12-25T17:32:07.427Z,83.99
2022-12-25T17:34:35.119Z,83.45
2022-12-25T17:37:03.037Z,83.82
2022-12-25T17:39:31.228Z,83.24
2022-12-25T17:41:59.173Z,83.89
2022-12-25T17:44:27.627Z,82.93
2022-12-25T17:46:55.432Z,83.31
2022-12-25T17:49:23.271Z,83.02
2022-12-25T17:51:51.640Z,82.92
2022-12-25T17:54:19.526Z,83.67
2022-12-25T17:56:48.158Z,83.63
2022-12-25T17:59:18.983Z,83.63
2022-12-25T18:01:47.413Z,83.46
2022-12-25T18:04:15.349Z,83.60
2022-12-25T18:06:43.443Z,83.44
2022-12-25T18:09:11.535Z,84.25
2022-12-25T18:11:39.814Z,83.48
2022-12-25T18:14:07.656Z,84.11
2022-12-25T18:16:35.943Z,84.40
2022-12-25T18:19:03.900Z,84.65
2022-12-25T18:21:32.241Z,84.46
2022-12-25T18:24:00.341Z,84.93
2022-12-25T18:26:28.996Z,84.69
2022-12-25T18:28:57.507Z,84.96
2022-12-25T18:31:25.372Z,84.31
2022-12-25T18:33:54.457Z,84.35
2022-12-25T18:36:22.402Z,83.63
2022-12-25T18:38:50.205Z,83.39
2022-12-25T18:41:18.542Z,83.60
2022-12-25T18:43:52.947Z,83.30
2022-12-25T18:46:24.807Z,83.37
2022-12-25T18:48:53.032Z,82.81
2022-12-25T18:51:21.443Z,82.39
2022-12-25T18:53:49.279Z,82.57
2022-12-25T18:56:17.857Z,82.33
2022-12-25T18:58:46.355Z,82.21
2022-12-25T19:01:14.190Z,82.29
2022-12-25T19:03:42.598Z,82.68
2022-12-25T19:06:10.301Z,82.11
2022-12-25T19:08:38.063Z,82.01
2022-12-25T19:11:05.830Z,81.73
2022-12-25T19:13:33.673Z,81.61
2022-12-25T19:16:02.257Z,81.43
2022-12-25T19:18:30.251Z,81.57
2022-12-25T19:20:58.130Z,81.46
2022-12-25T19:23:26.118Z,81.39
2022-12-25T19:25:54.026Z,81.49
2022-12-25T19:28:21.871Z,81.05
2022-12-25T19:30:49.739Z,80.83
2022-12-25T19:33:18.183Z,81.06
2022-12-25T19:35:47.014Z,80.97
2022-12-25T19:38:15.369Z,81.33
2022-12-25T19:41:00.613Z,81.09
2022-12-25T19:43:28.799Z,80.92
2022-12-25T19:45:56.694Z,80.99
2022-12-25T19:48:24.588Z,80.78
2022-12-25T19:50:52.441Z,81.17
2022-12-25T19:53:23.618Z,81.15
2022-12-25T19:55:52.669Z,81.74
2022-12-25T19:58:22.444Z,82.58
2022-12-25T20:00:50.288Z,83.09
2022-12-25T20:03:18.255Z,82.89
2022-12-25T20:05:46.555Z,83.32
2022-12-25T20:08:14.369Z,84.20
2022-12-25T20:10:42.522Z,84.34
2022-12-25T20:13:10.412Z,84.55
2022-12-25T20:15:38.190Z,84.32
2022-12-25T20:18:06.868Z,84.55
2022-12-25T20:20:34.702Z,84.99
2022-12-25T20:23:03.076Z,85.00
2022-12-25T20:25:30.875Z,85.42
2022-12-25T20:27:58.754Z,85.42
2022-12-25T20:30:27.212Z,85.50
2022-12-25T20:32:55.668Z,85.63
2022-12-25T20:35:24.204Z,85.32
2022-12-25T20:37:51.908Z,85.53
2022-12-25T20:40:20.636Z,85.46
2022-12-25T20:42:49.112Z,86.15
2022-12-25T20:45:16.975Z,86.02
2022-12-25T20:47:44.984Z,85.89
2022-12-25T20:50:12.831Z,86.01
2022-12-25T20:52:40.658Z,86.43
2022-12-25T20:55:08.912Z,86.10
2022-12-25T20:57:37.029Z,86.55
2022-12-25T21:00:05.274Z,86.14
2022-12-25T21:02:34.635Z,85.95
2022-12-25T21:05:04.426Z,86.20
2022-12-25T21:07:32.708Z,85.87
2022-12-25T21:10:00.757Z,86.40
2022-12-25T21:12:28.850Z,86.34
2022-12-25T21:14:56.627Z,86.01
2022-12-25T21:17:24.585Z,86.09
2022-12-25T21:19:52.829Z,85.76
2022-12-25T21:22:20.620Z,85.82
2022-12-25T21:24:52.194Z,85.68
2022-12-25T21:27:20.417Z,86.00
2022-12-25T21:29:48.306Z,85.49
2022-12-25T21:32:33.863Z,85.47
2022-12-25T21:35:02.018Z,85.43
2022-12-25T21:37:29.871Z,85.40
2022-12-25T21:39:57.835Z,84.98
2022-12-25T21:42:26.145Z,85.16
2022-12-25T21:44:54.433Z,85.56
2022-12-25T21:47:22.499Z,85.45
2022-12-25T21:50:13.311Z,85.25
2022-12-25T21:52:41.209Z,85.25
2022-12-25T21:55:09.689Z,85.03
2022-12-25T21:57:37.700Z,85.34
2022-12-25T22:00:05.594Z,85.38
2022-12-25T22:02:33.610Z,85.49
2022-12-25T22:05:01.601Z,85.26
2022-12-25T22:07:29.388Z,85.60
2022-12-25T22:09:57.561Z,85.88
2022-12-25T22:12:42.826Z,86.32
2022-12-25T22:15:10.663Z,86.29
2022-12-25T22:17:57.033Z,86.07
2022-12-25T22:20:25.056Z,86.28
2022-12-25T22:22:52.879Z,86.25
2022-12-25T22:25:20.728Z,86.37
2022-12-25T22:27:48.842Z,86.14
2022-12-25T22:30:16.944Z,86.18
2022-12-25T22:32:44.833Z,85.98
2022-12-25T22:35:13.649Z,85.91
2022-12-25T22:37:41.557Z,86.40
2022-12-25T22:40:09.329Z,86.12
2022-12-25T22:42:37.733Z,86.57
2022-12-25T22:45:05.517Z,86.81
2022-12-25T22:47:33.419Z,86.27
2022-12-25T22:50:01.173Z,86.62
2022-12-25T22:52:28.933Z,86.64
2022-12-25T22:54:57.103Z,86.70
2022-12-25T22:57:24.972Z,86.16
2022-12-25T22:59:53.066Z,87.02
2022-12-25T23:02:21.334Z,87.03
2022-12-25T23:04:49.307Z,86.92
2022-12-25T23:07:17.482Z,86.84
2022-12-25T23:09:45.367Z,87.52
2022-12-25T23:12:33.722Z,86.92
2022-12-25T23:15:00.444Z,87.39
2022-12-25T23:17:45.961Z,87.08
2022-12-25T23:20:30.505Z,87.37
2022-12-25T23:23:15.405Z,86.70
2022-12-25T23:26:00.445Z,87.53
2022-12-25T23:28:45.728Z,87.08
2022-12-25T23:31:13.609Z,86.88
2022-12-25T23:33:41.714Z,87.00
2022-12-25T23:36:09.473Z,87.26
2022-12-25T23:38:37.222Z,86.83
2022-12-25T23:41:05.308Z,87.41
2022-12-25T23:43:33.383Z,87.18
2022-12-25T23:46:01.310Z,86.93
2022-12-25T23:48:29.052Z,87.08
2022-12-25T23:50:56.704Z,87.37
2022-12-25T23:53:24.871Z,87.15
2022-12-25T23:55:55.953Z,87.11
2022-12-25T23:58:23.833Z,87.09
